createdAt,value
2022-10-05T00:01:09.597Z,96596.56
2022-10-05T00:03:36.080Z,96588.13
2022-10-05T00:06:02.434Z,96585.19
2022-10-05T00:08:28.790Z,96583.00
2022-10-05T00:10:55.168Z,96587.63
2022-10-05T00:13:21.522Z,96585.78
2022-10-05T00:15:47.905Z,96587.69
2022-10-05T00:18:14.290Z,96577.75
2022-10-05T00:20:40.631Z,96577.75
2022-10-05T00:23:06.993Z,96583.47
2022-10-05T00:25:33.472Z,96589.19
2022-10-05T00:27:59.849Z,96578.09
2022-10-05T00:30:26.264Z,96591.03
2022-10-05T00:32:57.250Z,96582.56
2022-10-05T00:35:25.739Z,96592.50
2022-10-05T00:37:52.083Z,96584.16
2022-10-05T00:40:18.585Z,96583.84
2022-10-05T00:42:44.944Z,96578.09
2022-10-05T00:45:11.331Z,96578.53
2022-10-05T00:47:37.720Z,96577.00
2022-10-05T00:50:04.088Z,96586.91
2022-10-05T00:52:30.459Z,96577.75
2022-10-05T00:54:56.842Z,96582.34
2022-10-05T00:57:23.190Z,96580.78
2022-10-05T00:59:49.534Z,96584.94
2022-10-05T01:02:15.963Z,96578.88
2022-10-05T01:04:42.348Z,96580.69
2022-10-05T01:07:08.716Z,96581.13
2022-10-05T01:09:35.073Z,96583.84
2022-10-05T01:12:01.436Z,96589.97
2022-10-05T01:14:27.775Z,96586.53
2022-10-05T01:16:54.228Z,96583.84
2022-10-05T01:19:20.643Z,96579.28
2022-10-05T01:21:47.348Z,96580.03
2022-10-05T01:24:13.830Z,96570.84
2022-10-05T01:26:40.180Z,96578.63
2022-10-05T01:29:06.517Z,96572.72
2022-10-05T01:31:33.091Z,96576.75
2022-10-05T01:33:59.539Z,96575.75
2022-10-05T01:36:25.914Z,96574.25
2022-10-05T01:38:52.279Z,96571.63
2022-10-05T01:41:18.646Z,96570.84
2022-10-05T01:43:45.012Z,96577.00
2022-10-05T01:46:11.457Z,96577.00
2022-10-05T01:48:37.814Z,96569.31
2022-10-05T01:51:04.186Z,96565.13
2022-10-05T01:53:30.631Z,96578.16
2022-10-05T01:55:56.969Z,96567.31
2022-10-05T01:58:23.342Z,96567.25
2022-10-05T02:00:49.736Z,96570.66
2022-10-05T02:03:16.105Z,96565.41
2022-10-05T02:05:42.476Z,96563.19
2022-10-05T02:08:08.842Z,96562.41
2022-10-05T02:10:35.178Z,96560.91
2022-10-05T02:13:01.519Z,96559.34
2022-10-05T02:15:27.910Z,96559.00
2022-10-05T02:17:54.263Z,96564.72
2022-10-05T02:20:20.624Z,96559.72
2022-10-05T02:22:46.987Z,96567.03
2022-10-05T02:25:13.320Z,96570.03
2022-10-05T02:27:39.651Z,96567.41
2022-10-05T02:30:06.126Z,96560.78
2022-10-05T02:32:32.478Z,96551.66
2022-10-05T02:34:58.839Z,96553.22
2022-10-05T02:37:25.231Z,96562.44
2022-10-05T02:39:51.572Z,96557.44
2022-10-05T02:42:17.908Z,96567.78
2022-10-05T02:44:44.310Z,96560.16
2022-10-05T02:47:10.635Z,96563.22
2022-10-05T02:49:36.967Z,96555.91
2022-10-05T02:52:03.342Z,96568.84
2022-10-05T02:54:29.726Z,96562.94
2022-10-05T02:56:56.078Z,96554.91
2022-10-05T02:59:22.505Z,96565.03
2022-10-05T03:01:48.893Z,96558.59
2022-10-05T03:04:15.300Z,96565.47
2022-10-05T03:06:41.793Z,96565.88
2022-10-05T03:09:08.146Z,96565.09
2022-10-05T03:11:34.530Z,96565.13
2022-10-05T03:14:01.033Z,96563.94
2022-10-05T03:16:27.433Z,96564.38
2022-10-05T03:18:53.851Z,96558.59
2022-10-05T03:21:20.228Z,96559.81
2022-10-05T03:23:46.571Z,96564.84
2022-10-05T03:26:12.941Z,96553.44
2022-10-05T03:28:39.507Z,96548.56
2022-10-05T03:31:05.890Z,96552.81
2022-10-05T03:33:32.306Z,96550.97
2022-10-05T03:35:58.770Z,96541.78
2022-10-05T03:38:25.136Z,96553.25
2022-10-05T03:40:51.485Z,96545.63
2022-10-05T03:43:17.886Z,96544.84
2022-10-05T03:45:44.245Z,96545.63
2022-10-05T03:48:10.647Z,96552.50
2022-10-05T03:50:37.031Z,96552.28
2022-10-05T03:53:03.375Z,96548.91
2022-10-05T03:55:29.725Z,96551.63
2022-10-05T03:57:56.147Z,96555.50
2022-10-05T04:00:22.532Z,96552.09
2022-10-05T04:02:48.945Z,96552.56
2022-10-05T04:05:15.457Z,96551.09
2022-10-05T04:07:41.813Z,96547.72
2022-10-05T04:10:08.143Z,96562.66
2022-10-05T04:12:34.511Z,96560.81
2022-10-05T04:15:00.848Z,96558.91
2022-10-05T04:17:27.197Z,96571.31
2022-10-05T04:19:53.576Z,96557.06
2022-10-05T04:22:19.946Z,96560.69
2022-10-05T04:24:46.361Z,96562.00
2022-10-05T04:27:12.748Z,96555.56
2022-10-05T04:29:39.106Z,96558.25
2022-10-05T04:32:05.460Z,96560.59
2022-10-05T04:34:31.853Z,96563.25
2022-10-05T04:36:58.207Z,96560.22
2022-10-05T04:39:24.580Z,96556.84
2022-10-05T04:41:51.033Z,96559.88
2022-10-05T04:44:17.368Z,96569.72
2022-10-05T04:46:43.821Z,96555.94
2022-10-05T04:49:10.286Z,96556.25
2022-10-05T04:51:36.630Z,96556.44
2022-10-05T04:54:03.013Z,96559.91
2022-10-05T04:56:29.409Z,96553.06
2022-10-05T04:58:55.769Z,96556.13
2022-10-05T05:01:22.180Z,96559.97
2022-10-05T05:03:48.801Z,96560.38
2022-10-05T05:06:17.788Z,96563.84
2022-10-05T05:08:44.611Z,96568.81
2022-10-05T05:11:15.140Z,96572.16
2022-10-05T05:13:43.141Z,96570.59
2022-10-05T05:16:09.506Z,96572.09
2022-10-05T05:18:35.956Z,96576.84
2022-10-05T05:21:02.304Z,96572.25
2022-10-05T05:23:28.650Z,96571.91
2022-10-05T05:25:55.198Z,96564.66
2022-10-05T05:28:21.651Z,96568.50
2022-10-05T05:30:48.078Z,96566.19
2022-10-05T05:33:14.453Z,96570.06
2022-10-05T05:35:40.805Z,96570.78
2022-10-05T05:38:07.156Z,96582.19
2022-10-05T05:40:33.576Z,96578.34
2022-10-05T05:42:59.933Z,96581.75
2022-10-05T05:45:26.356Z,96588.34
2022-10-05T05:47:52.774Z,96591.47
2022-10-05T05:50:19.156Z,96590.69
2022-10-05T05:52:45.544Z,96595.69
2022-10-05T05:55:12.016Z,96597.59
2022-10-05T05:57:38.386Z,96603.03
2022-10-05T06:00:04.737Z,96591.72
2022-10-05T06:02:31.282Z,96597.44
2022-10-05T06:04:57.743Z,96603.84
2022-10-05T06:07:29.459Z,96603.09
2022-10-05T06:09:56.869Z,96598.19
2022-10-05T06:12:23.203Z,96596.00
2022-10-05T06:14:49.560Z,96596.06
2022-10-05T06:17:16.054Z,96592.25
2022-10-05T06:19:42.393Z,96597.97
2022-10-05T06:22:08.801Z,96598.78
2022-10-05T06:24:35.212Z,96598.81
2022-10-05T06:27:01.571Z,96596.53
2022-10-05T06:29:27.969Z,96593.88
2022-10-05T06:31:58.771Z,96602.38
2022-10-05T06:34:25.463Z,96593.28
2022-10-05T06:36:51.811Z,96606.41
2022-10-05T06:39:18.241Z,96603.03
2022-10-05T06:41:44.600Z,96604.25
2022-10-05T06:44:10.968Z,96596.63
2022-10-05T06:46:37.376Z,96593.59
2022-10-05T06:49:03.757Z,96597.03
2022-10-05T06:51:30.137Z,96606.22
2022-10-05T06:53:56.617Z,96598.97
2022-10-05T06:56:22.975Z,96611.09
2022-10-05T06:58:49.313Z,96601.50
2022-10-05T07:01:16.098Z,96599.25
2022-10-05T07:03:43.692Z,96605.81
2022-10-05T07:06:10.071Z,96607.00
2022-10-05T07:08:36.472Z,96609.31
2022-10-05T07:11:02.903Z,96615.03
2022-10-05T07:13:29.257Z,96606.28
2022-10-05T07:15:55.640Z,96610.44
2022-10-05T07:18:22.137Z,96613.47
2022-10-05T07:20:49.421Z,96613.47
2022-10-05T07:23:15.909Z,96615.78
2022-10-05T07:25:42.259Z,96619.47
2022-10-05T07:28:08.675Z,96612.34
2022-10-05T07:30:35.228Z,96612.75
2022-10-05T07:33:01.693Z,96621.53
2022-10-05T07:35:28.096Z,96610.84
2022-10-05T07:37:54.482Z,96612.38
2022-10-05T07:40:20.829Z,96619.63
2022-10-05T07:42:51.869Z,96623.84
2022-10-05T07:45:19.073Z,96624.22
2022-10-05T07:47:45.441Z,96633.09
2022-10-05T07:50:11.796Z,96627.09
2022-10-05T07:52:38.318Z,96629.13
2022-10-05T07:55:04.725Z,96623.81
2022-10-05T07:57:31.076Z,96622.69
2022-10-05T07:59:57.611Z,96624.22
2022-10-05T08:02:24.135Z,96621.91
2022-10-05T08:04:50.556Z,96626.47
2022-10-05T08:07:17.018Z,96623.03
2022-10-05T08:09:43.439Z,96618.88
2022-10-05T08:12:10.767Z,96626.72
2022-10-05T08:14:37.309Z,96618.59
2022-10-05T08:17:03.683Z,96619.56
2022-10-05T08:19:30.084Z,96626.06
2022-10-05T08:21:56.628Z,96622.66
2022-10-05T08:24:23.012Z,96623.41
2022-10-05T08:26:49.376Z,96623.03
2022-10-05T08:29:15.886Z,96621.91
2022-10-05T08:31:42.313Z,96624.16
2022-10-05T08:34:08.668Z,96628.38
2022-10-05T08:36:35.188Z,96632.50
2022-10-05T08:39:01.542Z,96622.63
2022-10-05T08:41:27.880Z,96627.91
2022-10-05T08:43:54.389Z,96627.97
2022-10-05T08:46:20.819Z,96620.72
2022-10-05T08:48:47.263Z,96634.47
2022-10-05T08:51:13.657Z,96627.97
2022-10-05T08:53:40.066Z,96626.81
2022-10-05T08:56:06.419Z,96627.19
2022-10-05T08:58:32.779Z,96626.81
2022-10-05T09:00:59.319Z,96629.09
2022-10-05T09:03:25.698Z,96631.84
2022-10-05T09:05:52.082Z,96641.16
2022-10-05T09:08:18.466Z,96639.38
2022-10-05T09:10:44.814Z,96640.16
2022-10-05T09:13:11.324Z,96640.91
2022-10-05T09:15:37.680Z,96646.25
2022-10-05T09:18:04.054Z,96645.50
2022-10-05T09:20:30.521Z,96639.75
2022-10-05T09:22:56.854Z,96640.53
2022-10-05T09:25:23.199Z,96642.41
2022-10-05T09:27:49.682Z,96641.53
2022-10-05T09:30:16.042Z,96640.69
2022-10-05T09:32:42.413Z,96638.19
2022-10-05T09:35:08.781Z,96639.31
2022-10-05T09:37:35.158Z,96634.03
2022-10-05T09:40:01.741Z,96630.19
2022-10-05T09:42:28.217Z,96633.25
2022-10-05T09:44:54.596Z,96633.97
2022-10-05T09:47:21.016Z,96635.16
2022-10-05T09:49:47.425Z,96621.78
2022-10-05T09:52:18.668Z,96634.75
2022-10-05T09:54:45.604Z,96631.28
2022-10-05T09:57:12.127Z,96614.78
2022-10-05T09:59:39.001Z,96613.31
2022-10-05T10:02:05.412Z,96625.94
2022-10-05T10:04:31.938Z,96622.50
2022-10-05T10:06:58.292Z,96621.34
2022-10-05T10:09:35.170Z,96609.50
2022-10-05T10:12:02.933Z,96615.63
2022-10-05T10:14:29.324Z,96613.72
2022-10-05T10:16:55.710Z,96612.53
2022-10-05T10:19:22.116Z,96625.25
2022-10-05T10:21:48.890Z,96617.72
2022-10-05T10:24:15.543Z,96620.53
2022-10-05T10:26:41.927Z,96616.34
2022-10-05T10:29:08.272Z,96622.09
2022-10-05T10:31:34.683Z,96623.22
2022-10-05T10:34:01.064Z,96625.13
2022-10-05T10:36:27.409Z,96619.00
2022-10-05T10:38:53.764Z,96628.56
2022-10-05T10:41:20.204Z,96615.97
2022-10-05T10:43:46.636Z,96616.97
2022-10-05T10:46:13.055Z,96611.47
2022-10-05T10:48:39.723Z,96617.78
2022-10-05T10:51:06.106Z,96615.91
2022-10-05T10:53:32.490Z,96607.53
2022-10-05T10:55:58.971Z,96609.84
2022-10-05T10:58:25.383Z,96612.50
2022-10-05T11:00:51.813Z,96612.13
2022-10-05T11:03:18.342Z,96611.75
2022-10-05T11:05:48.011Z,96604.50
2022-10-05T11:08:15.348Z,96602.56
2022-10-05T11:10:41.833Z,96611.34
2022-10-05T11:13:08.217Z,96605.44
2022-10-05T11:15:34.683Z,96607.50
2022-10-05T11:18:01.202Z,96607.47
2022-10-05T11:20:27.551Z,96604.09
2022-10-05T11:22:53.911Z,96604.44
2022-10-05T11:25:20.284Z,96595.66
2022-10-05T11:27:46.631Z,96590.31
2022-10-05T11:30:12.985Z,96605.22
2022-10-05T11:32:39.382Z,96597.19
2022-10-05T11:35:05.760Z,96598.34
2022-10-05T11:37:32.134Z,96601.25
2022-10-05T11:39:58.629Z,96589.06
2022-10-05T11:42:25.019Z,96588.00
2022-10-05T11:44:51.362Z,96594.09
2022-10-05T11:47:17.825Z,96586.50
2022-10-05T11:49:44.188Z,96584.56
2022-10-05T11:52:10.631Z,96582.28
2022-10-05T11:54:58.580Z,96575.03
2022-10-05T11:57:23.399Z,96576.56
2022-10-05T11:59:49.877Z,96574.25
2022-10-05T12:02:16.236Z,96574.84
2022-10-05T12:04:42.607Z,96570.09
2022-10-05T12:07:08.987Z,96570.75
2022-10-05T12:09:35.650Z,96570.41
2022-10-05T12:12:02.281Z,96566.97
2022-10-05T12:14:28.706Z,96561.28
2022-10-05T12:16:55.095Z,96559.72
2022-10-05T12:19:21.928Z,96560.50
2022-10-05T12:21:48.440Z,96555.16
2022-10-05T12:24:14.930Z,96549.38
2022-10-05T12:26:41.290Z,96549.38
2022-10-05T12:29:07.675Z,96546.44
2022-10-05T12:31:34.122Z,96544.47
2022-10-05T12:34:00.564Z,96536.69
2022-10-05T12:36:36.058Z,96539.03
2022-10-05T12:39:12.899Z,96540.19
2022-10-05T12:41:39.396Z,96543.25
2022-10-05T12:44:05.758Z,96535.59
2022-10-05T12:46:32.132Z,96534.81
2022-10-05T12:48:58.605Z,96531.38
2022-10-05T12:51:24.969Z,96527.94
2022-10-05T12:53:51.370Z,96530.22
2022-10-05T12:56:17.840Z,96535.53
2022-10-05T12:58:44.199Z,96535.31
2022-10-05T13:01:10.603Z,96531.69
2022-10-05T13:03:37.016Z,96531.34
2022-10-05T13:06:03.365Z,96527.53
2022-10-05T13:08:29.760Z,96536.69
2022-10-05T13:10:59.921Z,96520.66
2022-10-05T13:13:28.163Z,96535.56
2022-10-05T13:15:54.543Z,96528.66
2022-10-05T13:18:20.998Z,96527.88
2022-10-05T13:20:47.376Z,96532.81
2022-10-05T13:23:13.775Z,96539.50
2022-10-05T13:25:40.234Z,96531.50
2022-10-05T13:28:06.610Z,96529.34
2022-10-05T13:30:33.068Z,96529.00
2022-10-05T13:32:59.557Z,96527.47
2022-10-05T13:35:25.919Z,96524.78
2022-10-05T13:37:52.275Z,96525.91
2022-10-05T13:40:18.671Z,96526.69
2022-10-05T13:42:45.002Z,96524.41
2022-10-05T13:45:11.352Z,96524.41
2022-10-05T13:47:37.854Z,96528.22
2022-10-05T13:50:04.229Z,96522.66
2022-10-05T13:52:30.571Z,96523.47
2022-10-05T13:54:56.990Z,96523.19
2022-10-05T13:57:23.320Z,96520.53
2022-10-05T13:59:49.679Z,96519.06
2022-10-05T14:02:16.321Z,96523.59
2022-10-05T14:04:42.752Z,96516.69
2022-10-05T14:07:09.129Z,96514.78
2022-10-05T14:09:35.592Z,96505.25
2022-10-05T14:12:01.973Z,96520.13
2022-10-05T14:14:28.400Z,96517.09
2022-10-05T14:16:55.094Z,96522.31
2022-10-05T14:19:23.230Z,96514.94
2022-10-05T14:21:49.594Z,96514.75
2022-10-05T14:24:32.222Z,96519.72
2022-10-05T14:27:02.341Z,96519.00
2022-10-05T14:29:28.758Z,96513.63
2022-10-05T14:31:55.319Z,96512.09
2022-10-05T14:34:21.707Z,96513.22
2022-10-05T14:36:48.187Z,96507.16
2022-10-05T14:39:14.554Z,96507.50
2022-10-05T14:41:41.116Z,96509.38
2022-10-05T14:44:07.515Z,96509.59
2022-10-05T14:46:35.438Z,96510.34
2022-10-05T14:49:01.869Z,96507.44
2022-10-05T14:51:28.370Z,96505.94
2022-10-05T14:53:54.727Z,96511.31
2022-10-05T14:56:21.092Z,96505.97
2022-10-05T14:58:47.554Z,96510.56
2022-10-05T15:01:14.009Z,96505.22
2022-10-05T15:03:40.379Z,96506.75
2022-10-05T15:06:06.862Z,96511.72
2022-10-05T15:08:33.213Z,96507.50
2022-10-05T15:10:59.618Z,96513.19
2022-10-05T15:13:25.989Z,96517.97
2022-10-05T15:15:52.384Z,96508.97
2022-10-05T15:18:18.769Z,96510.53
2022-10-05T15:20:45.244Z,96518.22
2022-10-05T15:23:11.736Z,96516.69
2022-10-05T15:25:38.195Z,96505.25
2022-10-05T15:28:04.738Z,96509.44
2022-10-05T15:30:31.168Z,96511.41
2022-10-05T15:32:57.548Z,96512.13
2022-10-05T15:35:23.956Z,96515.56
2022-10-05T15:37:50.331Z,96520.63
2022-10-05T15:40:16.742Z,96518.63
2022-10-05T15:42:43.132Z,96525.44
2022-10-05T15:45:09.489Z,96517.09
2022-10-05T15:47:35.829Z,96520.19
2022-10-05T15:50:02.309Z,96528.94
2022-10-05T15:52:28.675Z,96525.16
2022-10-05T15:54:55.023Z,96518.66
2022-10-05T15:57:21.412Z,96516.34
2022-10-05T15:59:47.797Z,96515.22
2022-10-05T16:02:14.264Z,96520.91
2022-10-05T16:04:40.661Z,96535.66
2022-10-05T16:07:07.006Z,96523.97
2022-10-05T16:09:33.392Z,96531.94
2022-10-05T16:12:00.289Z,96533.50
2022-10-05T16:14:26.703Z,96527.03
2022-10-05T16:16:53.108Z,96530.88
2022-10-05T16:19:24.037Z,96535.03
2022-10-05T16:21:50.402Z,96532.03
2022-10-05T16:24:16.761Z,96536.97
2022-10-05T16:26:43.333Z,96534.28
2022-10-05T16:29:09.709Z,96536.88
2022-10-05T16:31:36.072Z,96549.34
2022-10-05T16:34:02.443Z,96541.78
2022-10-05T16:36:28.803Z,96551.91
2022-10-05T16:38:55.157Z,96551.25
2022-10-05T16:41:21.576Z,96556.59
2022-10-05T16:43:47.927Z,96557.75
2022-10-05T16:46:14.337Z,96560.41
2022-10-05T16:48:40.890Z,96563.84
2022-10-05T16:51:07.342Z,96560.03
2022-10-05T16:53:33.739Z,96563.06
2022-10-05T16:56:00.231Z,96559.63
2022-10-05T16:58:26.657Z,96567.66
2022-10-05T17:00:53.030Z,96569.50
2022-10-05T17:03:19.514Z,96563.91
2022-10-05T17:05:45.884Z,96574.47
2022-10-05T17:08:12.258Z,96574.88
2022-10-05T17:10:38.731Z,96574.13
2022-10-05T17:13:05.072Z,96577.19
2022-10-05T17:15:31.451Z,96583.66
2022-10-05T17:17:57.851Z,96592.88
2022-10-05T17:20:24.227Z,96589.44
2022-10-05T17:22:50.590Z,96591.69
2022-10-05T17:25:16.989Z,96598.56
2022-10-05T17:27:46.474Z,96610.00
2022-10-05T17:30:15.116Z,96612.41
2022-10-05T17:32:41.475Z,96615.56
2022-10-05T17:35:07.853Z,96619.13
2022-10-05T17:37:34.206Z,96621.47
2022-10-05T17:40:00.649Z,96628.38
2022-10-05T17:42:27.004Z,96632.16
2022-10-05T17:44:53.374Z,96627.94
2022-10-05T17:47:19.724Z,96631.41
2022-10-05T17:49:46.366Z,96630.66
2022-10-05T17:52:12.754Z,96632.56
2022-10-05T17:54:39.128Z,96633.66
2022-10-05T17:57:05.486Z,96640.00
2022-10-05T17:59:31.846Z,96645.38
2022-10-05T18:01:58.249Z,96640.78
2022-10-05T18:04:24.650Z,96643.88
2022-10-05T18:06:50.991Z,96640.03
2022-10-05T18:09:17.511Z,96643.88
2022-10-05T18:11:43.868Z,96653.75
2022-10-05T18:14:10.205Z,96665.28
2022-10-05T18:16:36.588Z,96665.25
2022-10-05T18:19:02.935Z,96679.38
2022-10-05T18:21:29.286Z,96682.06
2022-10-05T18:23:55.673Z,96685.09
2022-10-05T18:26:22.114Z,96692.75
2022-10-05T18:28:48.538Z,96697.56
2022-10-05T18:31:15.036Z,96691.66
2022-10-05T18:33:41.450Z,96693.38
2022-10-05T18:36:07.810Z,96696.44
2022-10-05T18:38:34.207Z,96701.41
2022-10-05T18:41:00.588Z,96707.19
2022-10-05T18:43:26.934Z,96706.41
2022-10-05T18:45:53.352Z,96710.63
2022-10-05T18:48:19.687Z,96718.63
2022-10-05T18:50:46.045Z,96719.47
2022-10-05T18:53:12.422Z,96728.59
2022-10-05T18:55:38.764Z,96735.06
2022-10-05T18:58:05.118Z,96749.53
2022-10-05T19:00:31.518Z,96741.91
2022-10-05T19:02:57.893Z,96746.34
2022-10-05T19:05:46.500Z,96749.13
2022-10-05T19:08:10.795Z,96754.13
2022-10-05T19:10:37.174Z,96760.66
2022-10-05T19:13:03.522Z,96762.97
2022-10-05T19:15:29.918Z,96768.28
2022-10-05T19:17:56.266Z,96763.00
2022-10-05T19:20:22.688Z,96772.13
2022-10-05T19:22:49.110Z,96774.06
2022-10-05T19:25:15.452Z,96773.66
2022-10-05T19:27:41.794Z,96775.19
2022-10-05T19:30:08.238Z,96779.06
2022-10-05T19:32:34.607Z,96785.44
2022-10-05T19:35:00.946Z,96784.34
2022-10-05T19:37:27.476Z,96792.66
2022-10-05T19:39:53.847Z,96791.19
2022-10-05T19:42:20.197Z,96789.66
2022-10-05T19:44:46.577Z,96790.84
2022-10-05T19:47:12.927Z,96794.28
2022-10-05T19:49:39.307Z,96797.31
2022-10-05T19:52:05.747Z,96793.88
2022-10-05T19:54:32.127Z,96798.88
2022-10-05T19:56:58.454Z,96809.59
2022-10-05T19:59:24.854Z,96810.38
2022-10-05T20:01:51.314Z,96815.31
2022-10-05T20:04:17.720Z,96817.59
2022-10-05T20:06:44.192Z,96823.56
2022-10-05T20:09:10.574Z,96820.25
2022-10-05T20:11:36.964Z,96821.28
2022-10-05T20:14:03.460Z,96825.19
2022-10-05T20:16:29.871Z,96829.00
2022-10-05T20:18:56.319Z,96820.94
2022-10-05T20:21:22.808Z,96830.16
2022-10-05T20:23:49.160Z,96831.69
2022-10-05T20:26:15.518Z,96832.84
2022-10-05T20:28:42.030Z,96849.66
2022-10-05T20:31:08.453Z,96850.81
2022-10-05T20:33:34.896Z,96840.09
2022-10-05T20:36:01.344Z,96855.84
2022-10-05T20:38:27.904Z,96853.16
2022-10-05T20:40:54.431Z,96858.63
2022-10-05T20:43:20.928Z,96859.13
2022-10-05T20:45:47.265Z,96859.91
2022-10-05T20:48:13.622Z,96869.22
2022-10-05T20:50:40.037Z,96879.91
2022-10-05T20:53:10.959Z,96886.06
2022-10-05T20:55:38.171Z,96884.88
2022-10-05T20:58:04.588Z,96880.66
2022-10-05T21:00:34.029Z,96894.84
2022-10-05T21:03:00.586Z,96900.19
2022-10-05T21:05:27.000Z,96894.84
2022-10-05T21:07:53.372Z,96903.66
2022-10-05T21:10:19.737Z,96907.81
2022-10-05T21:12:46.114Z,96910.56
2022-10-05T21:15:12.503Z,96916.88
2022-10-05T21:17:38.863Z,96923.00
2022-10-05T21:20:05.256Z,96925.00
2022-10-05T21:22:31.604Z,96916.59
2022-10-05T21:24:57.934Z,96920.44
2022-10-05T21:27:24.397Z,96918.94
2022-10-05T21:29:50.782Z,96923.53
2022-10-05T21:32:17.112Z,96926.97
2022-10-05T21:34:43.559Z,96928.56
2022-10-05T21:37:09.928Z,96925.88
2022-10-05T21:39:36.288Z,96920.50
2022-10-05T21:42:02.680Z,96923.91
2022-10-05T21:44:29.031Z,96925.47
2022-10-05T21:46:55.390Z,96929.31
2022-10-05T21:49:21.844Z,96940.09
2022-10-05T21:51:48.186Z,96931.66
2022-10-05T21:54:14.560Z,96934.16
2022-10-05T21:56:40.936Z,96925.00
2022-10-05T21:59:07.279Z,96924.72
2022-10-05T22:01:33.661Z,96923.53
2022-10-05T22:04:00.079Z,96925.03
2022-10-05T22:06:26.417Z,96928.94
2022-10-05T22:08:52.760Z,96930.50
2022-10-05T22:11:19.152Z,96927.44
2022-10-05T22:13:45.512Z,96938.16
2022-10-05T22:16:11.927Z,96931.28
2022-10-05T22:18:38.427Z,96942.78
2022-10-05T22:21:04.777Z,96943.91
2022-10-05T22:23:31.164Z,96945.88
2022-10-05T22:25:57.589Z,96946.59
2022-10-05T22:28:23.993Z,96937.13
2022-10-05T22:30:50.404Z,96941.88
2022-10-05T22:33:16.792Z,96944.56
2022-10-05T22:35:43.142Z,96937.34
2022-10-05T22:38:09.498Z,96947.69
2022-10-05T22:40:35.981Z,96943.47
2022-10-05T22:43:02.364Z,96941.16
2022-10-05T22:45:32.411Z,96937.72
2022-10-05T22:47:59.278Z,96944.19
2022-10-05T22:50:25.611Z,96946.50
2022-10-05T22:52:51.957Z,96948.78
2022-10-05T22:55:18.336Z,96956.09
2022-10-05T22:57:44.687Z,96968.41
2022-10-05T23:00:11.051Z,96961.88
2022-10-05T23:02:37.464Z,96959.78
2022-10-05T23:05:03.858Z,96961.41
2022-10-05T23:07:30.193Z,96954.13
2022-10-05T23:09:56.646Z,96956.06
2022-10-05T23:12:22.992Z,96966.75
2022-10-05T23:14:49.327Z,96962.53
2022-10-05T23:17:15.768Z,96973.31
2022-10-05T23:19:45.081Z,96969.84
2022-10-05T23:22:11.432Z,96969.88
2022-10-05T23:24:37.883Z,96968.38
2022-10-05T23:27:04.219Z,96970.63
2022-10-05T23:29:30.584Z,96972.97
2022-10-05T23:31:57.019Z,96989.31
2022-10-05T23:34:23.344Z,96977.28
2022-10-05T23:36:49.688Z,96970.50
2022-10-05T23:39:18.383Z,96977.06
2022-10-05T23:41:44.733Z,96983.25
2022-10-05T23:44:11.079Z,96982.13
2022-10-05T23:46:37.422Z,96982.91
2022-10-05T23:49:03.762Z,96989.81
2022-10-05T23:51:30.111Z,96997.44
2022-10-05T23:53:56.486Z,96999.75
2022-10-05T23:56:22.840Z,97002.44
2022-10-05T23:58:49.199Z,96999.03
